Time;durP1;ratioP1;P1;durP2;ratioP2;P2;SDS_P1;SDS_P2;PMS_P1;PMS_P2;Temp;Humidity;BMP_temperature;BMP_pressure;BME280_temperature;BME280_humidity;BME280_pressure;Samples;Min_cycle;Max_cycle;Signal;HPM_P1;HPM_P2
2022/04/16 00:00:47;;;;;;;24.38;13.02;;;11.30;99.90;;;;;;6219225;23;20451;-89
2022/04/16 00:03:13;;;;;;;23.05;13.02;;;11.30;99.90;;;;;;6219058;23;20004;-89
2022/04/16 00:05:39;;;;;;;26.48;14.10;;;11.20;99.90;;;;;;6218754;23;20087;-89
2022/04/16 00:08:07;;;;;;;28.10;14.98;;;11.20;99.90;;;;;;6218675;23;20089;-89
2022/04/16 00:10:39;;;;;;;18.95;11.13;;;11.20;99.90;;;;;;6219000;23;20016;-89
2022/04/16 00:13:05;;;;;;;23.20;12.68;;;11.10;99.90;;;;;;6218736;23;20000;-89
2022/04/16 00:15:31;;;;;;;28.10;14.70;;;11.10;99.90;;;;;;6218990;23;20023;-89
2022/04/16 00:17:57;;;;;;;29.50;15.20;;;11.10;99.90;;;;;;6219144;23;20008;-89
2022/04/16 00:20:25;;;;;;;18.60;12.27;;;11.00;99.90;;;;;;6218727;23;20285;-88
2022/04/16 00:22:52;;;;;;;21.50;11.75;;;10.90;99.90;;;;;;6219026;23;20011;-90
2022/04/16 00:25:19;;;;;;;21.10;12.18;;;10.90;99.90;;;;;;6218850;23;20016;-89
2022/04/16 00:27:46;;;;;;;21.27;12.02;;;10.80;99.90;;;;;;6218496;23;20347;-89
2022/04/16 00:30:12;;;;;;;18.77;11.77;;;10.80;99.90;;;;;;6218799;23;20028;-89
2022/04/16 00:32:40;;;;;;;24.88;12.43;;;10.80;99.90;;;;;;6218855;23;20512;-89
2022/04/16 00:35:09;;;;;;;21.92;12.43;;;10.70;99.90;;;;;;6219005;23;20004;-89
2022/04/16 00:37:35;;;;;;;24.73;14.30;;;10.70;99.90;;;;;;6219366;23;20003;-89
2022/04/16 00:40:01;;;;;;;20.25;10.75;;;10.60;99.90;;;;;;6221742;23;20004;-89
2022/04/16 00:42:41;;;;;;;24.13;10.70;;;10.60;99.90;;;;;;6221254;23;20040;-89
2022/04/16 00:45:07;;;;;;;18.67;9.77;;;10.50;99.90;;;;;;6218975;23;20012;-89
2022/04/16 00:47:33;;;;;;;20.90;12.05;;;10.50;99.90;;;;;;6218986;23;20008;-88
2022/04/16 00:50:00;;;;;;;25.73;13.55;;;10.50;99.90;;;;;;6218837;23;20035;-89
2022/04/16 00:52:26;;;;;;;30.55;15.55;;;10.50;99.90;;;;;;6218377;23;20070;-88
2022/04/16 00:54:54;;;;;;;31.02;15.80;;;10.50;99.90;;;;;;6218736;23;20386;-88
2022/04/16 00:57:21;;;;;;;34.53;18.52;;;10.40;99.90;;;;;;6226475;23;20446;-88
2022/04/16 00:59:47;;;;;;;31.65;17.90;;;10.40;99.90;;;;;;6222790;23;20016;-89
2022/04/16 01:02:12;;;;;;;26.40;15.65;;;10.40;99.90;;;;;;6219002;23;20266;-88
2022/04/16 01:04:38;;;;;;;26.85;14.60;;;10.30;99.90;;;;;;6245759;23;20004;-88
2022/04/16 01:07:06;;;;;;;28.67;14.77;;;10.20;99.90;;;;;;6218190;23;20062;-89
2022/04/16 01:09:33;;;;;;;22.10;13.52;;;10.20;99.90;;;;;;6218298;23;20106;-88
2022/04/16 01:11:59;;;;;;;28.25;15.40;;;10.20;99.90;;;;;;6218039;23;20320;-88
2022/04/16 01:14:25;;;;;;;26.50;14.63;;;10.20;99.90;;;;;;6218271;23;20004;-88
2022/04/16 01:16:55;;;;;;;22.65;13.98;;;10.20;99.90;;;;;;6218900;23;20027;-88
2022/04/16 01:19:21;;;;;;;29.23;17.73;;;10.10;99.90;;;;;;6220253;23;20000;-87
2022/04/16 01:21:48;;;;;;;27.60;14.98;;;10.10;99.90;;;;;;6220019;23;20012;-88
2022/04/16 01:24:14;;;;;;;28.88;15.82;;;10.00;99.90;;;;;;6219957;23;20000;-88
2022/04/16 01:26:43;;;;;;;29.65;15.45;;;10.00;99.90;;;;;;6219693;23;20016;-87
2022/04/16 01:29:10;;;;;;;23.13;14.85;;;9.90;99.90;;;;;;6220157;23;20051;-87
2022/04/16 01:31:36;;;;;;;27.90;14.20;;;9.90;99.90;;;;;;6219972;23;20094;-88
2022/04/16 01:34:01;;;;;;;22.75;14.27;;;9.90;99.90;;;;;;6220022;23;20474;-88
2022/04/16 01:36:31;;;;;;;27.05;14.90;;;9.90;99.90;;;;;;6247118;23;20008;-87
2022/04/16 01:38:58;;;;;;;28.20;15.40;;;9.80;99.90;;;;;;6220968;23;20011;-89
2022/04/16 01:41:30;;;;;;;26.70;13.52;;;9.80;99.90;;;;;;6221400;23;20012;-88
2022/04/16 01:43:56;;;;;;;24.45;13.68;;;9.70;99.90;;;;;;6229207;23;20375;-88
2022/04/16 01:46:21;;;;;;;25.40;13.20;;;9.70;99.90;;;;;;6230798;23;20000;-88
2022/04/16 01:48:54;;;;;;;26.35;15.40;;;9.60;99.90;;;;;;6226589;23;20101;-88
2022/04/16 01:51:21;;;;;;;33.33;16.27;;;9.60;99.90;;;;;;6223240;23;20115;-88
2022/04/16 01:53:47;;;;;;;30.67;17.40;;;9.60;99.90;;;;;;6221067;23;20034;-88
2022/04/16 01:56:13;;;;;;;30.63;17.40;;;9.60;99.90;;;;;;6220979;23;20012;-89
2022/04/16 01:58:39;;;;;;;31.65;15.23;;;9.50;99.90;;;;;;6221251;23;20000;-89
2022/04/16 02:01:05;;;;;;;30.98;18.13;;;9.50;99.90;;;;;;6220701;23;20004;-89
2022/04/16 02:03:33;;;;;;;26.67;15.68;;;9.40;99.90;;;;;;6220342;23;20015;-88
2022/04/16 02:05:59;;;;;;;29.33;16.63;;;9.40;99.90;;;;;;6220201;23;20013;-89
2022/04/16 02:08:24;;;;;;;23.17;14.23;;;9.30;99.90;;;;;;6219784;23;20011;-88
2022/04/16 02:10:50;;;;;;;24.35;14.25;;;9.30;99.90;;;;;;6219831;23;20066;-89
2022/04/16 02:13:16;;;;;;;23.98;14.57;;;9.30;99.90;;;;;;6219937;23;20094;-89
2022/04/16 02:15:41;;;;;;;23.55;13.45;;;9.20;99.90;;;;;;6220043;23;20004;-89
2022/04/16 02:18:07;;;;;;;27.92;13.85;;;9.20;99.90;;;;;;6219840;23;20004;-89
2022/04/16 02:20:35;;;;;;;20.65;12.30;;;9.20;99.90;;;;;;6219676;23;20101;-89
2022/04/16 02:23:02;;;;;;;26.67;13.50;;;9.20;99.90;;;;;;6219952;23;20012;-89
2022/04/16 02:25:28;;;;;;;23.98;13.13;;;9.20;99.90;;;;;;6219855;23;20012;-90
2022/04/16 02:27:53;;;;;;;20.75;12.00;;;9.20;99.90;;;;;;6219428;23;20020;-87
2022/04/16 02:30:20;;;;;;;25.85;14.05;;;9.30;99.90;;;;;;6219468;23;20039;-86
2022/04/16 02:32:48;;;;;;;28.25;12.75;;;9.30;99.90;;;;;;6219373;23;19996;-87
2022/04/16 02:35:16;;;;;;;26.13;13.60;;;9.20;99.90;;;;;;6219280;23;20432;-87
2022/04/16 02:37:43;;;;;;;22.77;13.38;;;9.20;99.90;;;;;;6219653;23;20039;-87
2022/04/16 02:40:09;;;;;;;28.10;15.18;;;9.20;99.90;;;;;;6219476;23;20431;-87
2022/04/16 02:42:41;;;;;;;24.17;14.32;;;9.20;99.90;;;;;;6225560;23;20100;-87
2022/04/16 02:47:54;;;;;;;28.98;16.20;;;9.10;99.90;;;;;;6246673;23;20501;-88
2022/04/16 02:50:21;;;;;;;29.13;16.77;;;9.00;99.90;;;;;;6219283;23;20065;-87
2022/04/16 02:52:47;;;;;;;27.75;15.20;;;9.00;99.90;;;;;;6219467;23;20060;-88
2022/04/16 02:55:16;;;;;;;29.55;17.77;;;9.00;99.90;;;;;;6219714;23;19996;-87
2022/04/16 02:57:45;;;;;;;30.70;17.75;;;9.00;99.90;;;;;;6219143;23;20074;-87
2022/04/16 03:00:13;;;;;;;30.02;16.88;;;8.90;99.90;;;;;;6219099;23;20004;-88
2022/04/16 03:02:39;;;;;;;30.83;16.65;;;8.90;99.90;;;;;;6218770;23;20082;-90
2022/04/16 03:05:06;;;;;;;30.02;17.33;;;8.90;99.90;;;;;;6218698;23;20024;-88
2022/04/16 03:07:33;;;;;;;20.17;13.20;;;8.90;99.90;;;;;;6218848;23;20030;-88
2022/04/16 03:09:59;;;;;;;30.23;16.27;;;8.90;99.90;;;;;;6218778;23;20005;-88
2022/04/16 03:12:25;;;;;;;28.50;16.02;;;8.90;99.90;;;;;;6218925;23;20014;-88
2022/04/16 03:17:35;;;;;;;22.00;13.80;;;8.80;99.90;;;;;;6245987;23;20090;-89
2022/04/16 03:20:05;;;;;;;23.23;14.48;;;8.80;99.90;;;;;;6219173;23;20034;-88
2022/04/16 03:22:33;;;;;;;24.60;13.93;;;8.80;99.90;;;;;;6218692;23;20004;-88
2022/04/16 03:25:01;;;;;;;27.95;15.50;;;8.70;99.90;;;;;;6218999;23;20014;-88
2022/04/16 03:27:27;;;;;;;29.45;16.05;;;8.70;99.90;;;;;;6218858;23;20032;-88
2022/04/16 03:29:53;;;;;;;31.42;17.23;;;8.70;99.90;;;;;;6219008;23;20556;-88
2022/04/16 03:32:18;;;;;;;24.95;14.27;;;8.70;99.90;;;;;;6218623;23;20011;-88
2022/04/16 03:34:44;;;;;;;26.45;16.27;;;8.60;99.90;;;;;;6218844;23;20101;-88
2022/04/16 03:37:10;;;;;;;26.55;15.70;;;8.70;99.90;;;;;;6219004;23;20031;-88
2022/04/16 03:39:35;;;;;;;27.25;15.68;;;8.60;99.90;;;;;;6218920;23;20443;-89
2022/04/16 03:42:01;;;;;;;33.92;17.55;;;8.60;99.90;;;;;;6218850;23;20379;-89
2022/04/16 03:44:27;;;;;;;28.83;17.35;;;8.60;99.90;;;;;;6219027;23;20068;-86
2022/04/16 03:46:52;;;;;;;30.27;17.40;;;8.60;99.90;;;;;;6219017;23;20011;-89
2022/04/16 03:49:18;;;;;;;32.60;18.05;;;8.50;99.90;;;;;;6218978;23;20030;-88
2022/04/16 03:51:44;;;;;;;28.42;16.13;;;8.50;99.90;;;;;;6219065;23;20019;-88
2022/04/16 04:02:22;;;;;;;33.83;17.15;;;8.60;99.90;;;;;;6246079;23;20015;-87
2022/04/16 04:04:49;;;;;;;27.92;16.02;;;8.50;99.90;;;;;;6219045;23;20032;-88
2022/04/16 04:07:15;;;;;;;28.42;15.98;;;8.50;99.90;;;;;;6219287;23;20059;-87
2022/04/16 04:09:40;;;;;;;30.38;18.00;;;8.50;99.90;;;;;;6219198;23;20440;-87
2022/04/16 04:12:13;;;;;;;33.90;18.80;;;8.50;99.90;;;;;;6219420;23;20019;-87
2022/04/16 04:14:39;;;;;;;31.88;17.20;;;8.40;99.90;;;;;;6219552;23;20011;-87
2022/04/16 04:17:07;;;;;;;31.75;18.98;;;8.30;99.90;;;;;;6225278;23;20008;-87
2022/04/16 04:19:38;;;;;;;28.92;16.55;;;8.30;99.90;;;;;;6231495;23;20004;-87
2022/04/16 04:22:04;;;;;;;;;;;8.30;99.90;;;;;;6229683;23;20008;-87
2022/04/16 04:24:29;;;;;;;32.70;17.75;;;8.30;99.90;;;;;;6227935;23;19900;-87
2022/04/16 04:26:59;;;;;;;28.92;15.40;;;8.30;99.90;;;;;;6225013;23;20016;-89
2022/04/16 04:29:27;;;;;;;34.97;18.17;;;8.30;99.90;;;;;;6223033;23;20039;-87
2022/04/16 04:31:53;;;;;;;31.23;17.63;;;8.20;99.90;;;;;;6221138;23;20008;-87
2022/04/16 04:34:19;;;;;;;30.08;16.75;;;8.20;99.90;;;;;;6219504;23;20055;-87
2022/04/16 04:36:45;;;;;;;29.50;15.75;;;8.20;99.90;;;;;;6219511;23;20012;-86
2022/04/16 04:39:12;;;;;;;29.65;17.10;;;8.20;99.90;;;;;;6218938;23;20108;-86
2022/04/16 04:41:43;;;;;;;28.30;16.98;;;8.20;99.90;;;;;;6218626;23;20043;-86
2022/04/16 04:44:13;;;;;;;29.25;16.52;;;8.10;99.90;;;;;;6218210;23;20331;-88
2022/04/16 04:46:40;;;;;;;29.80;17.05;;;8.00;99.90;;;;;;6218505;23;20015;-87
2022/04/16 04:49:09;;;;;;;28.77;17.50;;;8.00;99.90;;;;;;6219145;23;20004;-88
2022/04/16 04:51:35;;;;;;;29.73;16.85;;;7.90;99.90;;;;;;6219848;23;20012;-88
2022/04/16 04:54:02;;;;;;;32.33;16.30;;;7.80;99.90;;;;;;6221189;23;20065;-88
2022/04/16 04:56:28;;;;;;;28.63;16.10;;;7.80;99.90;;;;;;6221757;23;20015;-88
2022/04/16 04:58:55;;;;;;;28.33;16.75;;;7.60;99.90;;;;;;6221099;23;20004;-88
2022/04/16 05:01:20;;;;;;;33.00;19.35;;;7.50;99.90;;;;;;6221071;23;20050;-88
2022/04/16 05:03:46;;;;;;;27.23;17.17;;;7.50;99.90;;;;;;6220873;23;20005;-87
2022/04/16 05:06:11;;;;;;;38.03;18.90;;;7.50;99.90;;;;;;6220765;23;20028;-87
2022/04/16 05:08:37;;;;;;;34.83;20.98;;;7.40;99.90;;;;;;6220624;23;20031;-87
2022/04/16 05:11:03;;;;;;;34.05;19.10;;;7.40;99.90;;;;;;6220149;23;20493;-87
2022/04/16 05:13:28;;;;;;;37.92;20.05;;;7.40;99.90;;;;;;6220247;23;20003;-87
2022/04/16 05:15:54;;;;;;;38.30;20.55;;;7.40;99.90;;;;;;6220542;23;20034;-88
2022/04/16 05:18:19;;;;;;;40.83;22.25;;;7.40;99.90;;;;;;6220640;23;20034;-88
2022/04/16 05:20:45;;;;;;;35.70;20.70;;;7.30;99.90;;;;;;6220107;23;20012;-88
2022/04/16 05:23:12;;;;;;;39.15;20.23;;;7.30;99.90;;;;;;6218830;23;20000;-88
2022/04/16 05:25:38;;;;;;;46.50;20.45;;;7.30;99.90;;;;;;6218548;23;20030;-87
2022/04/16 05:28:03;;;;;;;34.83;19.27;;;7.30;99.90;;;;;;6218915;23;20123;-88
2022/04/16 05:30:44;;;;;;;42.53;21.73;;;7.20;99.90;;;;;;6218816;23;20011;-88
2022/04/16 05:34:18;;;;;;;41.75;22.73;;;7.20;99.90;;;;;;6220887;23;20001;-87
2022/04/16 05:36:06;;;;;;;44.70;23.60;;;7.20;99.90;;;;;;6246897;23;20339;-87
2022/04/16 05:38:32;;;;;;;48.25;22.80;;;7.30;99.90;;;;;;6220208;23;20029;-87
2022/04/16 05:40:58;;;;;;;41.45;22.40;;;7.30;99.90;;;;;;6219686;23;20050;-87
2022/04/16 05:43:25;;;;;;;48.40;24.65;;;7.30;99.90;;;;;;6220810;23;20057;-88
2022/04/16 05:45:54;;;;;;;49.25;24.52;;;7.40;99.90;;;;;;6220595;23;20052;-88
2022/04/16 05:48:19;;;;;;;38.10;19.77;;;7.40;99.90;;;;;;6220572;23;20032;-89
2022/04/16 05:50:45;;;;;;;31.10;17.13;;;7.50;99.90;;;;;;6220320;23;20510;-88
2022/04/16 05:53:13;;;;;;;27.58;17.40;;;7.40;99.90;;;;;;6220406;23;20026;-88
2022/04/16 05:55:41;;;;;;;29.17;16.63;;;7.40;99.90;;;;;;6219843;23;20019;-88
2022/04/16 05:58:07;;;;;;;30.90;16.85;;;7.30;99.90;;;;;;6220130;23;20008;-88
2022/04/16 06:00:33;;;;;;;32.65;18.85;;;7.20;99.90;;;;;;6220311;23;20054;-90
2022/04/16 06:02:59;;;;;;;28.10;17.65;;;7.20;99.90;;;;;;6218391;23;20024;-91
2022/04/16 06:05:27;;;;;;;34.17;18.75;;;7.20;99.90;;;;;;6218840;23;20694;-90
2022/04/16 06:07:53;;;;;;;35.75;20.25;;;7.20;99.90;;;;;;6218630;23;20000;-91
2022/04/16 06:10:18;;;;;;;38.35;21.02;;;7.20;99.90;;;;;;6217646;23;20394;-90
2022/04/16 06:12:44;;;;;;;41.40;21.20;;;7.20;99.90;;;;;;6219913;23;20030;-90
2022/04/16 06:15:10;;;;;;;43.15;23.27;;;7.30;99.90;;;;;;6220328;23;20019;-90
2022/04/16 06:17:36;;;;;;;41.03;22.45;;;7.30;99.90;;;;;;6232380;23;20081;-91
2022/04/16 06:20:04;;;;;;;41.50;22.15;;;7.40;99.90;;;;;;6229085;23;20003;-91
2022/04/16 06:22:29;;;;;;;42.42;22.70;;;7.40;99.90;;;;;;6224164;23;20071;-90
2022/04/16 06:24:55;;;;;;;46.78;25.02;;;7.50;99.90;;;;;;6219854;23;20028;-90
2022/04/16 06:27:22;;;;;;;43.90;24.83;;;7.60;99.90;;;;;;6238115;23;20113;-92
2022/04/16 06:29:48;;;;;;;45.45;25.77;;;7.60;99.90;;;;;;6221268;23;20016;-91
2022/04/16 06:32:16;;;;;;;45.13;24.20;;;7.70;99.90;;;;;;6221956;23;20010;-91
2022/04/16 06:34:42;;;;;;;41.65;23.08;;;7.70;99.90;;;;;;6220856;23;20004;-90
2022/04/16 06:37:08;;;;;;;42.05;23.48;;;7.70;99.90;;;;;;6218601;23;20019;-91
2022/04/16 06:39:33;;;;;;;37.75;22.63;;;7.80;99.90;;;;;;6218489;23;20094;-90
2022/04/16 06:41:59;;;;;;;45.00;23.83;;;7.80;99.90;;;;;;6218602;23;20007;-90
2022/04/16 06:44:25;;;;;;;42.95;23.75;;;7.80;99.90;;;;;;6218541;23;20031;-92
2022/04/16 06:46:52;;;;;;;46.80;24.98;;;7.90;99.90;;;;;;6218829;23;20004;-92
2022/04/16 06:49:17;;;;;;;45.05;24.40;;;7.90;99.90;;;;;;6220246;23;20008;-91
2022/04/16 06:51:43;;;;;;;41.05;22.52;;;8.00;99.90;;;;;;6220007;23;20091;-88
2022/04/16 06:54:09;;;;;;;44.45;24.75;;;8.10;99.90;;;;;;6218500;23;20004;-90
2022/04/16 06:56:35;;;;;;;42.45;23.50;;;8.10;99.90;;;;;;6225193;23;20012;-89
2022/04/16 06:59:01;;;;;;;45.17;22.42;;;8.20;99.90;;;;;;6229938;23;20047;-89
2022/04/16 07:01:26;;;;;;;45.47;24.55;;;8.20;99.90;;;;;;6227055;23;20000;-89
2022/04/16 07:03:52;;;;;;;43.20;24.35;;;8.30;99.90;;;;;;6224252;23;20010;-90
2022/04/16 07:06:19;;;;;;;42.95;24.52;;;8.40;99.90;;;;;;6219703;23;20007;-89
2022/04/16 07:08:44;;;;;;;41.13;23.88;;;8.50;99.90;;;;;;6218833;23;20012;-89
2022/04/16 07:11:10;;;;;;;42.97;24.08;;;8.50;99.90;;;;;;6219417;23;20051;-89
2022/04/16 07:13:36;;;;;;;40.88;24.05;;;8.60;99.90;;;;;;6220166;23;20359;-90
2022/04/16 07:16:02;;;;;;;41.83;23.10;;;8.60;99.90;;;;;;6219568;23;20004;-89
2022/04/16 07:18:27;;;;;;;42.60;24.65;;;8.70;99.90;;;;;;6228090;23;20000;-89
2022/04/16 07:20:53;;;;;;;42.20;24.75;;;8.80;99.90;;;;;;6227317;23;20007;-89
2022/04/16 07:23:21;;;;;;;42.53;23.25;;;8.80;99.90;;;;;;6221530;23;20305;-90
2022/04/16 07:25:47;;;;;;;37.90;23.50;;;8.90;99.90;;;;;;6219043;23;20028;-91
2022/04/16 07:28:21;;;;;;;43.13;24.38;;;9.00;99.90;;;;;;6246250;23;20015;-91
2022/04/16 07:30:48;;;;;;;45.05;24.30;;;9.00;99.90;;;;;;6220107;23;20111;-90
2022/04/16 07:33:13;;;;;;;42.15;25.17;;;9.10;99.90;;;;;;6219836;23;20023;-90
2022/04/16 07:35:39;;;;;;;48.15;23.70;;;9.20;99.90;;;;;;6218681;23;20304;-89
2022/04/16 07:38:05;;;;;;;47.90;25.35;;;9.30;99.90;;;;;;6219381;23;20035;-90
2022/04/16 07:40:31;;;;;;;48.35;26.58;;;9.40;99.90;;;;;;6219859;23;20015;-89
2022/04/16 07:42:58;;;;;;;49.13;26.40;;;9.40;99.90;;;;;;6219661;23;20008;-90
2022/04/16 07:45:24;;;;;;;70.55;29.30;;;9.50;99.90;;;;;;6226588;23;20499;-89
2022/04/16 07:47:50;;;;;;;48.45;24.63;;;9.50;99.90;;;;;;6219455;23;20032;-89
2022/04/16 07:50:16;;;;;;;55.45;26.90;;;9.60;99.90;;;;;;6219291;23;20505;-90
2022/04/16 07:52:43;;;;;;;52.40;26.58;;;9.70;99.90;;;;;;6221349;23;20100;-90
2022/04/16 07:55:09;;;;;;;49.95;26.95;;;9.80;99.90;;;;;;6226044;23;20091;-90
2022/04/16 07:57:34;;;;;;;53.97;26.48;;;9.80;99.90;;;;;;6230503;23;20466;-90
2022/04/16 08:00:00;;;;;;;59.45;28.33;;;9.90;99.90;;;;;;6227197;23;20004;-90
2022/04/16 08:02:26;;;;;;;56.08;26.95;;;10.00;99.90;;;;;;6226094;23;20461;-89
2022/04/16 08:04:51;;;;;;;68.38;29.25;;;10.00;99.90;;;;;;6221799;23;20004;-89
2022/04/16 08:07:17;;;;;;;71.90;28.70;;;10.10;99.90;;;;;;6219390;23;20012;-90
2022/04/16 08:09:43;;;;;;;62.42;29.60;;;10.10;99.90;;;;;;6219513;23;20505;-90
2022/04/16 08:12:09;;;;;;;53.25;26.17;;;10.20;99.90;;;;;;6219182;23;20069;-89
2022/04/16 08:14:35;;;;;;;61.65;29.23;;;10.30;99.90;;;;;;6220627;23;20007;-90
2022/04/16 08:17:00;;;;;;;68.43;31.85;;;10.40;99.90;;;;;;6220363;23;20335;-92
2022/04/16 08:19:27;;;;;;;67.05;31.52;;;10.50;99.90;;;;;;6220202;23;20000;-91
2022/04/16 08:21:53;;;;;;;68.28;31.10;;;10.60;99.90;;;;;;6220865;23;20020;-91
2022/04/16 08:24:38;;;;;;;66.45;31.90;;;10.70;99.90;;;;;;6220236;23;20372;-92
2022/04/16 08:27:05;;;;;;;82.35;33.53;;;10.80;99.90;;;;;;6219987;23;20099;-91
2022/04/16 08:29:30;;;;;;;73.55;34.20;;;10.90;99.90;;;;;;6219733;23;20011;-90
2022/04/16 08:31:56;;;;;;;71.32;31.80;;;11.00;99.90;;;;;;6218946;23;20012;-90
2022/04/16 08:34:22;;;;;;;72.82;34.15;;;11.10;99.90;;;;;;6220413;23;20007;-90
2022/04/16 08:36:48;;;;;;;71.45;34.83;;;11.20;99.90;;;;;;6222039;23;20070;-90
2022/04/16 08:39:15;;;;;;;74.55;34.75;;;11.30;99.90;;;;;;6221216;23;20008;-91
2022/04/16 08:41:41;;;;;;;71.18;34.22;;;11.50;99.90;;;;;;6221261;23;20023;-91
2022/04/16 08:44:08;;;;;;;67.65;33.30;;;11.60;99.90;;;;;;6221922;23;20054;-91
2022/04/16 08:46:35;;;;;;;67.65;33.65;;;11.80;99.90;;;;;;6220434;23;20008;-91
2022/04/16 08:49:00;;;;;;;65.82;33.17;;;11.90;99.90;;;;;;6220312;23;20565;-89
2022/04/16 08:51:27;;;;;;;68.03;32.38;;;12.10;99.90;;;;;;6218092;23;20044;-90
2022/04/16 08:53:53;;;;;;;70.35;35.58;;;12.20;99.90;;;;;;6220324;23;20004;-92
2022/04/16 08:56:19;;;;;;;66.15;32.45;;;12.30;99.90;;;;;;6219703;23;20008;-91
2022/04/16 08:58:45;;;;;;;69.38;33.65;;;12.40;99.90;;;;;;6222237;23;20053;-91
2022/04/16 09:01:11;;;;;;;63.70;32.78;;;12.50;99.90;;;;;;6220120;23;20041;-90
2022/04/16 09:03:39;;;;;;;64.70;33.13;;;12.60;99.90;;;;;;6219985;23;20004;-91
2022/04/16 09:06:07;;;;;;;62.95;31.13;;;12.80;99.90;;;;;;6220634;23;20004;-91
2022/04/16 09:08:35;;;;;;;62.78;31.65;;;12.90;99.90;;;;;;6219074;23;20044;-90
2022/04/16 09:11:12;;;;;;;58.38;32.00;;;13.10;99.90;;;;;;6219658;23;20019;-92
2022/04/16 09:13:50;;;;;;;57.15;30.88;;;13.20;99.90;;;;;;6222508;23;20015;-90
2022/04/16 09:16:20;;;;;;;56.53;31.38;;;13.40;99.90;;;;;;6219396;23;20435;-91
2022/04/16 09:18:55;;;;;;;56.03;30.75;;;13.60;99.90;;;;;;6223339;23;20082;-94
2022/04/16 09:21:26;;;;;;;50.30;28.77;;;13.80;99.90;;;;;;6224609;23;20036;-92
2022/04/16 09:23:57;;;;;;;52.78;29.58;;;14.00;99.90;;;;;;6221667;23;20000;-92
2022/04/16 09:26:33;;;;;;;52.70;28.58;;;14.20;99.90;;;;;;6224603;23;20023;-90
2022/04/16 09:29:18;;;;;;;50.28;25.90;;;14.30;99.90;;;;;;6218707;23;20084;-91
2022/04/16 09:31:49;;;;;;;47.05;26.35;;;14.60;99.90;;;;;;6225707;23;20066;-89
2022/04/16 09:34:19;;;;;;;41.28;24.20;;;14.80;99.90;;;;;;6229889;23;20000;-91
2022/04/16 09:36:46;;;;;;;39.70;23.08;;;15.00;99.90;;;;;;6226883;23;20038;-91
2022/04/16 09:39:13;;;;;;;41.33;24.10;;;15.20;99.90;;;;;;6226982;23;20008;-90
2022/04/16 09:41:40;;;;;;;40.03;23.25;;;15.40;99.90;;;;;;6222358;23;20000;-90
2022/04/16 09:44:25;;;;;;;41.10;21.85;;;15.70;99.90;;;;;;6222176;23;20008;-90
2022/04/16 09:46:51;;;;;;;35.47;21.13;;;15.90;99.90;;;;;;6230433;23;20004;-91
2022/04/16 09:49:17;;;;;;;31.77;21.40;;;16.10;99.90;;;;;;6222361;23;20008;-91
2022/04/16 09:51:45;;;;;;;34.92;21.92;;;16.30;99.90;;;;;;6247994;23;20016;-90
2022/04/16 09:54:12;;;;;;;34.65;21.15;;;16.50;99.90;;;;;;6222084;23;20015;-90
2022/04/16 09:56:39;;;;;;;35.40;20.75;;;16.70;99.90;;;;;;6225899;23;20214;-90
2022/04/16 09:59:09;;;;;;;27.55;16.45;;;16.80;99.90;;;;;;6225127;23;20000;-90
2022/04/16 10:01:39;;;;;;;26.40;15.48;;;16.90;99.90;;;;;;6221655;23;20054;-91
2022/04/16 10:04:07;;;;;;;26.67;17.10;;;17.10;99.90;;;;;;6227448;23;20470;-90
2022/04/16 10:06:33;;;;;;;24.60;15.10;;;17.20;99.90;;;;;;6223668;23;20040;-91
2022/04/16 10:09:13;;;;;;;19.92;11.68;;;17.40;99.90;;;;;;6225839;23;20099;-90
2022/04/16 10:14:40;;;;;;;14.35;8.60;;;17.90;99.90;;;;;;6250211;23;20497;-89
2022/04/16 10:17:24;;;;;;;15.63;9.48;;;18.00;99.90;;;;;;6219865;23;20432;-89
2022/04/16 10:19:50;;;;;;;15.07;8.60;;;18.10;99.90;;;;;;6218206;23;20151;-90
2022/04/16 10:22:26;;;;;;;15.75;8.95;;;18.20;99.90;;;;;;6245437;23;20001;-91
2022/04/16 10:24:58;;;;;;;15.73;8.40;;;18.20;99.00;;;;;;6218683;23;20015;-89
2022/04/16 10:27:32;;;;;;;15.15;8.60;;;18.30;98.40;;;;;;6219229;23;20309;-90
2022/04/16 10:30:02;;;;;;;15.43;8.73;;;18.40;97.30;;;;;;6219307;23;20012;-91
2022/04/16 10:32:41;;;;;;;;;;;18.60;96.10;;;;;;6219553;23;20035;-90
2022/04/16 10:35:17;;;;;;;15.95;9.13;;;18.70;95.70;;;;;;6218584;23;20607;-90
2022/04/16 10:37:50;;;;;;;15.13;7.38;;;18.90;93.90;;;;;;6218017;23;20000;-90
2022/04/16 10:40:23;;;;;;;12.02;7.05;;;18.90;93.60;;;;;;6218192;23;20011;-90
2022/04/16 10:42:59;;;;;;;9.88;6.97;;;19.00;92.90;;;;;;6246409;23;20141;-90
2022/04/16 10:45:25;;;;;;;10.77;7.07;;;19.20;92.80;;;;;;6218785;23;20070;-90
2022/04/16 10:47:54;;;;;;;15.20;7.78;;;19.30;92.10;;;;;;6219525;23;20000;-90
2022/04/16 10:50:23;;;;;;;13.73;7.03;;;19.40;91.80;;;;;;6219046;23;20030;-89
2022/04/16 10:52:57;;;;;;;9.35;5.10;;;19.50;91.90;;;;;;6222520;23;20006;-90
2022/04/16 10:55:36;;;;;;;10.38;5.50;;;19.60;90.40;;;;;;6224649;23;20008;-90
2022/04/16 10:58:07;;;;;;;9.15;5.35;;;19.50;88.80;;;;;;6225817;23;20051;-89
2022/04/16 11:00:46;;;;;;;7.97;5.03;;;19.50;89.10;;;;;;6220544;23;20073;-91
2022/04/16 11:03:13;;;;;;;13.20;5.50;;;19.60;88.20;;;;;;6220432;23;20004;-90
2022/04/16 11:05:41;;;;;;;8.35;4.82;;;19.70;87.80;;;;;;6220381;23;20008;-91
2022/04/16 11:08:09;;;;;;;7.80;5.22;;;19.70;87.00;;;;;;6219158;23;20308;-91
2022/04/16 11:10:36;;;;;;;12.43;5.22;;;19.80;85.60;;;;;;6219882;23;20375;-91
2022/04/16 11:13:02;;;;;;;8.60;4.53;;;19.90;85.50;;;;;;6219877;23;20007;-91
2022/04/16 11:15:28;;;;;;;6.18;4.78;;;20.00;85.20;;;;;;6222277;23;20031;-93
2022/04/16 11:17:59;;;;;;;10.95;5.00;;;20.00;84.70;;;;;;6247079;23;20020;-90
2022/04/16 11:20:28;;;;;;;9.20;4.77;;;20.10;84.10;;;;;;6219955;23;20012;-92
2022/04/16 11:22:54;;;;;;;6.70;4.28;;;20.20;83.20;;;;;;6219447;23;20011;-92
2022/04/16 11:25:25;;;;;;;7.85;4.53;;;20.30;82.90;;;;;;6220022;23;20497;-93
2022/04/16 11:36:12;;;;;;;8.98;4.93;;;20.60;79.50;;;;;;6250889;23;20034;-90
2022/04/16 11:38:40;;;;;;;5.57;4.00;;;20.70;78.60;;;;;;6222238;23;20008;-91
2022/04/16 11:41:09;;;;;;;6.82;3.83;;;20.80;78.30;;;;;;6221211;23;20348;-90
2022/04/16 11:43:38;;;;;;;7.33;4.07;;;20.80;77.40;;;;;;6221232;23;20130;-91
2022/04/16 11:46:15;;;;;;;7.88;3.72;;;20.90;77.40;;;;;;6223943;23;20004;-91
2022/04/16 11:48:54;;;;;;;7.47;4.00;;;21.10;78.30;;;;;;6221053;23;20018;-91
2022/04/16 11:51:20;;;;;;;8.10;4.05;;;21.20;76.80;;;;;;6220377;23;20012;-92
2022/04/16 11:53:51;;;;;;;9.45;4.30;;;21.20;74.40;;;;;;6222516;23;20004;-92
2022/04/16 11:56:22;;;;;;;7.97;4.05;;;21.30;74.10;;;;;;6225921;23;20019;-92
2022/04/16 11:58:51;;;;;;;6.78;3.85;;;21.40;73.90;;;;;;6225863;23;20011;-93
2022/04/16 12:01:24;;;;;;;8.10;4.00;;;21.50;73.60;;;;;;6225149;23;20004;-92
2022/04/16 12:03:56;;;;;;;5.70;4.15;;;21.60;73.30;;;;;;6227486;23;20004;-91
2022/04/16 12:06:21;;;;;;;6.28;3.90;;;21.80;73.50;;;;;;6225590;23;20010;-91
2022/04/16 12:08:49;;;;;;;10.23;3.63;;;22.10;73.30;;;;;;6223077;23;20052;-92
2022/04/16 12:11:19;;;;;;;7.53;3.55;;;22.30;72.50;;;;;;6200015;23;20017;-93
2022/04/16 12:13:44;;;;;;;5.95;3.20;;;22.40;71.40;;;;;;6228812;23;20035;-92
2022/04/16 12:16:15;;;;;;;8.30;3.95;;;22.30;69.50;;;;;;6227246;23;20067;-90
2022/04/16 12:18:42;;;;;;;4.68;3.30;;;22.20;68.30;;;;;;6230262;23;20000;-91
2022/04/16 12:21:13;;;;;;;8.77;3.67;;;22.20;69.20;;;;;;6255958;23;20008;-90
2022/04/16 12:23:40;;;;;;;10.38;4.32;;;22.30;69.30;;;;;;6224070;23;20335;-89
2022/04/16 12:26:08;;;;;;;7.90;3.90;;;22.30;68.80;;;;;;6216738;23;20022;-91
2022/04/16 12:28:36;;;;;;;9.02;4.05;;;22.20;68.70;;;;;;6190802;23;20001;-93
2022/04/16 12:31:03;;;;;;;9.82;3.80;;;22.40;69.20;;;;;;6188737;23;20045;-91
2022/04/16 12:33:32;;;;;;;7.22;3.90;;;22.60;68.40;;;;;;6188213;23;20011;-94
2022/04/16 12:36:00;;;;;;;8.20;4.38;;;22.70;68.60;;;;;;6214906;23;20011;-91
2022/04/16 12:38:26;;;;;;;7.25;4.60;;;22.70;67.80;;;;;;6189468;23;20005;-90
2022/04/16 12:41:08;;;;;;;5.55;3.90;;;22.70;68.10;;;;;;6187541;23;20031;-92
2022/04/16 12:43:34;;;;;;;9.68;5.05;;;22.80;68.40;;;;;;6215394;23;20016;-92
2022/04/16 12:46:00;;;;;;;8.10;4.00;;;22.80;67.40;;;;;;6187789;23;20004;-92
2022/04/16 12:48:26;;;;;;;10.15;5.53;;;22.70;67.10;;;;;;6186971;23;20005;-92
2022/04/16 12:50:52;;;;;;;7.72;5.07;;;22.60;67.20;;;;;;6214515;23;20619;-92
2022/04/16 12:53:18;;;;;;;7.97;4.45;;;22.60;67.10;;;;;;6188431;23;20016;-92
2022/04/16 12:55:44;;;;;;;10.10;5.00;;;22.60;67.20;;;;;;6187558;23;20017;-93
2022/04/16 12:58:09;;;;;;;8.48;5.07;;;22.60;67.40;;;;;;6188706;23;20028;-92
2022/04/16 13:00:35;;;;;;;9.82;6.05;;;22.60;67.40;;;;;;6189313;23;20009;-92
2022/04/16 13:03:02;;;;;;;8.82;4.45;;;22.60;67.80;;;;;;6189584;23;20009;-92